Nacogdoches, TX

10:56 AM CST on March 03, 2015 (GMT -0600)
South Side | Change Station
CLOSE
Current Station
Personal Weather Station
Location: Nacogdoches, TX
Elevation: 331 ft
Nearby Weather Stations

Elev 331 ft 31.59 °N, 94.66 °W | Updated 1 second ago

Fog
Fog
57.9 °F
Feels Like 57.9 °F
N
0.0
Wind Variable Wind from East
Gusts 0.0 mph

Today
High -- | Low -- °F
--% Chance of Precip.
Yesterday
High -- | Low -- °F
Precip. -- in
6:43 AM 6:17 PM
Waxing Gibbous, 96% visible
Pressure 30.04 in
Visibility 5.0 miles
Clouds Overcast 300 ft
Dew Point 58 °F
Humidity 99%
Rainfall 0.00 in
Snow Depth Not available.
UV 2 out of 12
Pollen 8.90 out of 12
Air Quality Not available.
Flu Activity Not available.
METAR KOCH 031635Z AUTO 18005KT 5SM OVC003 13/13 A3004 RMK AO1

More Conditions Fewer Conditions

Pressure 30.04 in
Visibility 5.0 miles
Clouds Overcast 300 ft
Dew Point 58 °F
Humidity 99%
Rainfall 0.00 in
Snow Depth Not available.
UV 2 out of 12
Pollen 8.90 out of 12
Air Quality Not available.
Flu Activity Not available.
METAR KOCH 031635Z AUTO 18005KT 5SM OVC003 13/13 A3004 RMK AO1

More Conditions Fewer Conditions

Nowcast | as of 10:13 am CST on March 3, 2015

Dense fog continues to improve in most locales...but widespread visibility is still only a half mile to mile on average. Rain showers continue to spread over extreme deep East Texas...todelo Bend country...northwest and north central Louisiana and even some of south Arkansas...all moving north...northeast at 40 mph. This will continue to loosen up the remaining dense fog. Late morning commuters should exercise extreme caution...keep headlights on low beam and allow a little extra travel time for slower traffic and congestion... which will persist until lunchtime.

×

10-Day Weather Forecast

Almanac

Astronomy

Mar. 03, 2015 Rise Set
Actual Time
Civil Twilight
Nautical Twilight
Astronomical Twilight
Moon
Length of Visible Light
Length of Day
Tomorrow will be .
, % of the Moon is Illuminated

Today's Extremes

State Highs State Lows

Community

WunderPhotos

Upload Photos

1,802,170 photos uploaded!

WunderBlogs® & News

Nearby

Air Quality

  Air Quality AQ Index Pollutant
Not available.

Snow Depth

Station Depth Elevation

Earthquake Activity

City Distance Mag. Time & Date
Minimum magnitude displayed is 2.5.

Coastal Water Temperatures

Place Temperature

Nearby Weather Stations